createdAt,value
2018-07-17T00:00:27.860Z,53.40
2018-07-17T00:02:58.459Z,53.50
2018-07-17T00:07:58.878Z,53.90
2018-07-17T00:10:28.864Z,54.10
2018-07-17T00:12:58.989Z,54.10
2018-07-17T00:15:29.158Z,54.30
2018-07-17T00:17:59.608Z,54.10
2018-07-17T00:23:00.823Z,54.50
2018-07-17T00:25:31.029Z,54.40
2018-07-17T00:28:01.261Z,54.60
2018-07-17T00:30:31.514Z,54.90
2018-07-17T00:33:01.781Z,55.20
2018-07-17T00:35:31.754Z,54.90
2018-07-17T00:38:01.939Z,54.90
2018-07-17T00:40:32.218Z,54.90
2018-07-17T00:43:02.365Z,55.00
2018-07-17T00:45:32.564Z,55.00
2018-07-17T00:48:02.952Z,55.10
2018-07-17T00:50:32.962Z,55.20
2018-07-17T00:53:03.142Z,55.40
2018-07-17T00:55:33.501Z,55.30
2018-07-17T00:58:03.674Z,55.60
2018-07-17T01:00:39.122Z,55.90
2018-07-17T01:03:14.682Z,56.00
2018-07-17T01:05:49.789Z,56.10
2018-07-17T01:08:24.814Z,56.30
2018-07-17T01:11:00.005Z,56.10
2018-07-17T01:13:48.731Z,55.80
2018-07-17T01:16:19.004Z,56.20
2018-07-17T01:18:49.103Z,56.60
2018-07-17T01:21:19.352Z,56.80
2018-07-17T01:23:49.631Z,56.60
2018-07-17T01:26:19.771Z,57.30
2018-07-17T01:28:49.819Z,56.80
2018-07-17T01:31:20.152Z,57.10
2018-07-17T01:33:50.680Z,56.90
2018-07-17T01:36:21.041Z,56.70
2018-07-17T01:38:51.364Z,57.90
2018-07-17T01:41:21.587Z,57.40
2018-07-17T01:43:51.983Z,57.60
2018-07-17T01:46:22.532Z,57.30
2018-07-17T01:48:52.714Z,57.10
2018-07-17T01:51:23.012Z,57.10
2018-07-17T01:53:53.379Z,57.20
2018-07-17T01:56:23.573Z,57.50
2018-07-17T01:58:53.679Z,57.40
2018-07-17T02:01:24.009Z,57.60
2018-07-17T02:03:54.174Z,57.60
2018-07-17T02:06:24.538Z,57.80
2018-07-17T02:08:54.859Z,57.70
2018-07-17T02:11:25.027Z,58.20
2018-07-17T02:13:55.112Z,58.30
2018-07-17T02:16:25.590Z,58.70
2018-07-17T02:18:55.604Z,59.10
2018-07-17T02:21:25.552Z,59.50
2018-07-17T02:23:56.498Z,59.40
2018-07-17T02:26:27.642Z,59.60
2018-07-17T02:28:58.393Z,59.70
2018-07-17T02:31:29.616Z,59.70
2018-07-17T02:34:00.741Z,59.30
2018-07-17T02:36:31.758Z,59.40
2018-07-17T02:39:03.178Z,59.80
2018-07-17T02:41:33.936Z,59.90
2018-07-17T02:44:04.852Z,59.80
2018-07-17T02:46:35.877Z,60.00
2018-07-17T02:49:06.812Z,59.90
2018-07-17T02:51:37.998Z,59.90
2018-07-17T02:54:08.934Z,59.70
2018-07-17T03:04:03.998Z,59.80
2018-07-17T03:06:41.239Z,59.80
2018-07-17T03:09:11.356Z,60.10
2018-07-17T03:11:41.686Z,60.40
2018-07-17T03:14:11.756Z,60.40
2018-07-17T03:16:41.981Z,61.30
2018-07-17T03:19:12.537Z,61.10
2018-07-17T03:21:43.141Z,61.10
2018-07-17T03:24:13.460Z,61.30
2018-07-17T03:26:43.577Z,61.00
2018-07-17T03:29:14.055Z,61.00
2018-07-17T03:31:44.314Z,61.70
2018-07-17T03:34:14.374Z,61.70
2018-07-17T03:36:44.518Z,61.40
2018-07-17T03:39:14.602Z,61.60
2018-07-17T03:41:44.757Z,61.30
2018-07-17T03:44:14.857Z,61.10
2018-07-17T03:46:45.256Z,61.20
2018-07-17T03:49:15.406Z,61.70
2018-07-17T03:51:45.668Z,61.80
2018-07-17T03:56:45.954Z,61.70
2018-07-17T03:59:16.205Z,61.50
2018-07-17T04:01:46.283Z,61.40
2018-07-17T04:04:16.591Z,61.50
2018-07-17T04:06:46.613Z,61.70
2018-07-17T04:09:16.803Z,61.70
2018-07-17T04:11:47.101Z,61.40
2018-07-17T04:14:17.154Z,61.20
2018-07-17T04:16:55.373Z,60.80
2018-07-17T04:19:26.569Z,61.10
2018-07-17T04:21:56.755Z,61.10
2018-07-17T04:24:26.987Z,60.80
2018-07-17T04:26:57.067Z,60.90
2018-07-17T04:29:27.423Z,61.10
2018-07-17T04:31:57.550Z,61.00
2018-07-17T04:34:27.701Z,60.90
2018-07-17T04:36:57.911Z,61.10
2018-07-17T04:39:27.984Z,61.10
2018-07-17T04:41:58.232Z,61.10
2018-07-17T04:54:03.342Z,61.40
2018-07-17T04:56:34.183Z,61.30
2018-07-17T04:59:05.352Z,60.70
2018-07-17T05:06:36.749Z,60.50
2018-07-17T05:09:09.221Z,61.30
2018-07-17T05:11:39.357Z,60.70
2018-07-17T05:14:09.826Z,60.20
2018-07-17T05:16:40.392Z,60.00
2018-07-17T05:19:10.656Z,60.10
2018-07-17T05:21:40.911Z,60.60
2018-07-17T05:24:11.050Z,60.00
2018-07-17T05:26:41.423Z,59.90
2018-07-17T05:29:11.706Z,59.60
2018-07-17T05:31:42.005Z,59.30
2018-07-17T05:34:12.300Z,58.80
2018-07-17T05:36:42.651Z,58.00
2018-07-17T05:39:13.111Z,57.90
2018-07-17T05:41:43.469Z,58.30
2018-07-17T05:44:13.539Z,57.20
2018-07-17T05:46:43.786Z,57.30
2018-07-17T05:49:13.996Z,58.50
2018-07-17T05:51:44.237Z,57.50
2018-07-17T05:54:14.390Z,57.00
2018-07-17T05:56:44.703Z,57.20
2018-07-17T05:59:15.015Z,56.70
2018-07-17T06:01:45.526Z,55.80
2018-07-17T06:04:15.993Z,55.80
2018-07-17T06:06:46.293Z,55.50
2018-07-17T06:09:16.591Z,55.10
2018-07-17T06:11:46.856Z,54.70
2018-07-17T06:14:17.171Z,54.60
2018-07-17T06:16:47.269Z,53.40
2018-07-17T06:19:17.584Z,52.90
2018-07-17T06:21:47.696Z,54.00
2018-07-17T06:24:17.920Z,52.40
2018-07-17T06:26:48.259Z,51.70
2018-07-17T06:29:18.472Z,53.20
2018-07-17T06:31:49.149Z,51.90
2018-07-17T06:34:19.502Z,50.90
2018-07-17T06:36:49.745Z,52.70
2018-07-17T06:39:20.439Z,52.30
2018-07-17T06:41:50.872Z,51.70
2018-07-17T06:44:21.536Z,52.00
2018-07-17T06:46:51.882Z,53.20
2018-07-17T06:49:22.420Z,52.00
2018-07-17T06:51:52.762Z,51.00
2018-07-17T06:54:23.223Z,51.80
2018-07-17T06:56:53.563Z,51.60
2018-07-17T06:59:24.357Z,51.20
2018-07-17T07:01:54.666Z,51.20
2018-07-17T07:04:25.208Z,51.20
2018-07-17T07:06:55.771Z,52.00
2018-07-17T07:09:26.077Z,52.60
2018-07-17T07:11:56.297Z,52.60
2018-07-17T07:14:26.533Z,53.40
2018-07-17T07:16:56.735Z,52.70
2018-07-17T07:19:27.057Z,53.60
2018-07-17T07:22:03.826Z,52.60
2018-07-17T07:24:34.971Z,52.60
2018-07-17T07:27:06.207Z,51.70
2018-07-17T07:29:36.483Z,51.80
2018-07-17T07:34:04.387Z,51.40
2018-07-17T07:36:34.894Z,51.30
2018-07-17T07:39:07.756Z,51.70
2018-07-17T07:41:38.120Z,51.30
2018-07-17T07:44:08.356Z,51.00
2018-07-17T07:46:38.641Z,51.10
2018-07-17T07:49:08.706Z,50.70
2018-07-17T07:51:39.057Z,50.60
2018-07-17T07:54:09.200Z,50.50
2018-07-17T07:56:39.512Z,50.60
2018-07-17T07:59:09.743Z,50.40
2018-07-17T08:01:40.236Z,50.60
2018-07-17T08:04:10.532Z,50.90
2018-07-17T08:06:41.089Z,51.00
2018-07-17T08:09:11.285Z,51.00
2018-07-17T08:11:41.673Z,50.10
2018-07-17T08:14:11.917Z,50.90
2018-07-17T08:16:42.381Z,50.70
2018-07-17T08:19:12.576Z,50.70
2018-07-17T08:21:43.050Z,49.40
2018-07-17T08:24:13.683Z,49.50
2018-07-17T08:26:44.039Z,48.50
2018-07-17T08:29:14.346Z,48.20
2018-07-17T08:31:45.110Z,48.00
2018-07-17T08:34:15.383Z,47.20
2018-07-17T08:36:45.709Z,46.30
2018-07-17T08:39:15.842Z,46.00
2018-07-17T08:41:46.085Z,46.60
2018-07-17T08:44:16.222Z,46.80
2018-07-17T08:46:47.078Z,46.40
2018-07-17T08:49:17.342Z,46.40
2018-07-17T08:51:47.379Z,46.50
2018-07-17T08:54:17.274Z,46.40
2018-07-17T08:56:47.841Z,46.90
2018-07-17T08:59:18.167Z,45.60
2018-07-17T09:01:49.317Z,45.90
2018-07-17T09:04:20.356Z,46.50
2018-07-17T09:06:51.281Z,46.80
2018-07-17T09:14:05.688Z,46.90
2018-07-17T09:16:35.966Z,46.70
2018-07-17T09:19:06.148Z,47.00
2018-07-17T09:21:36.497Z,47.70
2018-07-17T09:24:07.669Z,48.30
2018-07-17T09:26:37.799Z,48.50
2018-07-17T09:29:07.947Z,48.70
2018-07-17T09:31:38.009Z,47.60
2018-07-17T09:34:08.272Z,48.00
2018-07-17T09:36:38.328Z,46.70
2018-07-17T09:39:09.779Z,45.70
2018-07-17T09:41:40.071Z,45.80
2018-07-17T09:44:10.295Z,44.80
2018-07-17T09:46:40.237Z,43.90
2018-07-17T09:49:10.432Z,43.50
2018-07-17T09:51:40.678Z,44.30
2018-07-17T09:54:10.946Z,43.20
2018-07-17T09:56:42.037Z,42.90
2018-07-17T09:59:13.140Z,42.40
2018-07-17T10:01:48.941Z,41.40
2018-07-17T10:04:19.607Z,41.30
2018-07-17T10:06:49.757Z,41.40
2018-07-17T10:09:20.156Z,41.10
2018-07-17T10:11:50.441Z,42.40
2018-07-17T10:14:20.662Z,40.60
2018-07-17T10:16:51.297Z,40.00
2018-07-17T10:19:21.659Z,40.40
2018-07-17T10:21:52.629Z,40.80
2018-07-17T10:24:23.880Z,41.60
2018-07-17T10:26:54.449Z,40.60
2018-07-17T10:29:26.129Z,41.70
2018-07-17T10:31:56.692Z,41.80
2018-07-17T10:34:28.486Z,42.30
2018-07-17T10:36:59.083Z,42.70
2018-07-17T10:39:29.863Z,43.90
2018-07-17T10:42:00.894Z,41.70
2018-07-17T10:44:32.021Z,43.50
2018-07-17T10:47:02.877Z,43.60
2018-07-17T10:49:33.829Z,42.40
2018-07-17T10:52:04.969Z,44.70
2018-07-17T10:54:36.423Z,45.00
2018-07-17T11:04:05.766Z,44.00
2018-07-17T11:06:35.998Z,42.90
2018-07-17T11:09:07.082Z,42.10
2018-07-17T11:11:37.453Z,42.00
2018-07-17T11:14:08.193Z,42.20
2018-07-17T11:16:38.587Z,42.70
2018-07-17T11:21:38.854Z,41.50
2018-07-17T11:24:08.976Z,41.40
2018-07-17T11:26:39.284Z,41.50
2018-07-17T11:29:09.439Z,41.90
2018-07-17T11:31:39.952Z,40.30
2018-07-17T11:34:10.360Z,41.10
2018-07-17T11:36:41.153Z,41.30
2018-07-17T11:39:12.381Z,40.60
2018-07-17T11:41:42.846Z,41.00
2018-07-17T11:44:13.493Z,40.50
2018-07-17T11:46:44.062Z,40.10
2018-07-17T11:49:14.324Z,39.60
2018-07-17T11:51:44.556Z,39.50
2018-07-17T11:54:15.124Z,39.40
2018-07-17T11:56:45.561Z,39.10
2018-07-17T11:59:15.664Z,39.30
2018-07-17T12:01:45.940Z,39.50
2018-07-17T12:04:16.335Z,39.10
2018-07-17T12:06:46.940Z,38.20
2018-07-17T12:09:17.330Z,37.40
2018-07-17T12:48:01.964Z,31.80
2018-07-17T12:50:31.986Z,32.90
2018-07-17T12:53:02.096Z,31.20
2018-07-17T12:55:32.590Z,32.00
2018-07-17T12:58:03.339Z,32.60
2018-07-17T13:00:33.471Z,32.10
2018-07-17T13:03:03.982Z,32.10
2018-07-17T13:05:34.337Z,31.90
2018-07-17T13:08:05.027Z,31.90
2018-07-17T13:10:35.421Z,32.20
2018-07-17T13:13:05.858Z,32.50
2018-07-17T13:15:36.298Z,32.80
2018-07-17T13:18:06.971Z,32.80
2018-07-17T13:20:37.453Z,33.30
2018-07-17T13:23:08.363Z,33.40
2018-07-17T13:25:39.012Z,33.20
2018-07-17T13:28:09.689Z,32.80
2018-07-17T13:30:40.530Z,32.40
2018-07-17T13:33:11.735Z,32.50
2018-07-17T13:35:44.240Z,32.50
2018-07-17T13:38:14.371Z,31.80
2018-07-17T13:40:44.392Z,31.50
2018-07-17T13:43:14.575Z,32.10
2018-07-17T13:45:44.818Z,31.80
2018-07-17T13:48:15.127Z,31.60
2018-07-17T13:50:45.466Z,31.80
2018-07-17T13:53:16.363Z,31.40
2018-07-17T13:55:46.993Z,31.90
2018-07-17T13:58:17.968Z,31.60
2018-07-17T14:00:48.444Z,31.60
2018-07-17T14:03:19.501Z,31.20
2018-07-17T14:05:49.799Z,31.90
2018-07-17T14:08:19.901Z,31.20
2018-07-17T14:10:50.006Z,31.80
2018-07-17T14:13:20.393Z,31.70
2018-07-17T14:15:50.977Z,32.50
2018-07-17T14:18:21.263Z,32.80
2018-07-17T14:20:51.522Z,31.90
2018-07-17T14:23:21.804Z,31.80
2018-07-17T14:25:52.107Z,31.10
2018-07-17T14:28:22.472Z,30.80
2018-07-17T14:30:53.281Z,31.30
2018-07-17T14:33:23.840Z,31.00
2018-07-17T14:35:54.150Z,31.60
2018-07-17T14:38:24.830Z,31.20
2018-07-17T14:40:55.374Z,31.00
2018-07-17T14:43:26.027Z,31.10
2018-07-17T14:45:56.396Z,30.70
2018-07-17T14:48:26.705Z,30.00
2018-07-17T14:50:57.455Z,29.70
2018-07-17T14:53:28.263Z,29.90
2018-07-17T14:55:59.272Z,30.00
2018-07-17T14:58:30.126Z,30.40
2018-07-17T15:01:00.533Z,30.00
2018-07-17T15:03:33.476Z,29.90
2018-07-17T15:06:04.035Z,29.80
2018-07-17T15:08:34.730Z,29.80
2018-07-17T15:11:05.316Z,29.70
2018-07-17T15:13:35.527Z,29.80
2018-07-17T15:16:06.095Z,30.00
2018-07-17T15:18:36.642Z,29.50
2018-07-17T15:21:07.263Z,29.70
2018-07-17T15:23:37.469Z,30.50
2018-07-17T15:26:08.189Z,30.00
2018-07-17T15:28:45.138Z,31.20
2018-07-17T15:31:15.770Z,29.70
2018-07-17T15:33:46.428Z,29.80
2018-07-17T15:36:16.790Z,29.40
2018-07-17T15:38:47.453Z,29.40
2018-07-17T15:41:18.152Z,29.70
2018-07-17T15:43:48.636Z,30.00
2018-07-17T15:46:19.000Z,30.70
2018-07-17T15:48:49.658Z,31.30
2018-07-17T15:51:19.869Z,32.00
2018-07-17T15:53:50.141Z,32.30
2018-07-17T15:56:20.326Z,32.60
2018-07-17T15:58:50.555Z,32.80
2018-07-17T16:01:20.840Z,32.30
2018-07-17T16:03:51.458Z,33.10
2018-07-17T16:06:21.783Z,33.30
2018-07-17T16:08:52.135Z,33.80
2018-07-17T16:11:23.319Z,34.10
2018-07-17T16:13:54.255Z,34.10
2018-07-17T16:16:25.023Z,34.40
2018-07-17T16:18:55.171Z,33.20
2018-07-17T16:21:27.407Z,32.90
2018-07-17T16:23:57.797Z,32.70
2018-07-17T16:29:02.485Z,33.20
2018-07-17T16:31:33.350Z,34.00
2018-07-17T16:34:05.124Z,34.40
2018-07-17T16:36:35.484Z,34.70
2018-07-17T16:39:08.172Z,35.20
2018-07-17T16:41:38.537Z,35.10
2018-07-17T16:44:09.150Z,35.20
2018-07-17T16:46:39.958Z,34.40
2018-07-17T16:49:10.120Z,34.30
2018-07-17T16:51:40.858Z,33.90
2018-07-17T16:54:11.189Z,34.90
2018-07-17T16:56:41.673Z,34.40
2018-07-17T16:59:14.092Z,35.20
2018-07-17T17:01:44.273Z,35.60
2018-07-17T17:04:15.006Z,36.60
2018-07-17T17:06:48.110Z,37.20
2018-07-17T17:09:18.453Z,37.00
2018-07-17T17:11:50.861Z,37.50
2018-07-17T17:14:21.199Z,37.60
2018-07-17T17:16:52.544Z,37.80
2018-07-17T17:21:54.313Z,37.80
2018-07-17T17:24:24.672Z,38.50
2018-07-17T17:26:54.684Z,37.90
2018-07-17T17:29:24.993Z,38.10
2018-07-17T17:31:56.495Z,38.20
2018-07-17T17:34:29.667Z,38.30
2018-07-17T17:39:32.861Z,38.80
2018-07-17T17:42:03.148Z,39.20
2018-07-17T17:44:33.178Z,39.10
2018-07-17T17:47:03.614Z,38.90
2018-07-17T17:49:34.183Z,39.30
2018-07-17T17:54:38.479Z,38.80
2018-07-17T17:57:09.019Z,38.80
2018-07-17T17:59:39.085Z,39.10
2018-07-17T18:02:09.934Z,39.10
2018-07-17T18:04:40.312Z,39.20
2018-07-17T18:07:10.550Z,38.60
2018-07-17T18:09:40.776Z,38.70
2018-07-17T18:12:11.374Z,39.30
2018-07-17T18:14:42.134Z,39.60
2018-07-17T18:17:12.432Z,40.00
2018-07-17T18:19:43.304Z,39.60
2018-07-17T18:22:13.655Z,39.60
2018-07-17T18:24:44.250Z,39.50
2018-07-17T18:27:14.649Z,40.60
2018-07-17T18:29:45.387Z,40.30
2018-07-17T18:32:15.822Z,40.70
2018-07-17T18:34:47.114Z,40.90
2018-07-17T18:37:18.141Z,41.00
2018-07-17T18:42:11.121Z,41.00
2018-07-17T18:44:41.523Z,40.70
2018-07-17T18:47:12.550Z,40.80
2018-07-17T18:49:42.843Z,41.20
2018-07-17T18:52:13.060Z,41.40
2018-07-17T18:54:43.430Z,41.60
2018-07-17T18:57:15.743Z,41.70
2018-07-17T18:59:46.818Z,42.20
2018-07-17T19:04:51.513Z,43.60
2018-07-17T19:07:24.145Z,44.00
2018-07-17T19:09:57.722Z,44.30
2018-07-17T19:12:28.803Z,44.90
2018-07-17T19:14:59.424Z,45.50
2018-07-17T19:17:30.648Z,45.70
2018-07-17T19:20:03.058Z,46.20
2018-07-17T19:22:34.329Z,46.70
2018-07-17T19:25:13.257Z,47.10
2018-07-17T19:27:46.181Z,47.50
2018-07-17T19:30:17.662Z,47.90
2018-07-17T19:32:49.751Z,48.00
2018-07-17T19:35:23.580Z,48.30
2018-07-17T19:40:30.805Z,48.70
2018-07-17T19:43:01.502Z,48.60
2018-07-17T19:45:32.953Z,48.70
2018-07-17T19:48:04.268Z,48.90
2018-07-17T19:50:40.015Z,48.70
2018-07-17T19:53:16.697Z,48.60
2018-07-17T19:55:47.867Z,48.30
2018-07-17T19:58:17.829Z,48.60
2018-07-17T20:00:47.852Z,48.70
2018-07-17T20:03:17.958Z,48.70
2018-07-17T20:05:48.483Z,48.70
2018-07-17T20:08:18.801Z,48.40
2018-07-17T20:10:49.597Z,48.30
2018-07-17T20:13:19.912Z,48.30
2018-07-17T20:15:50.248Z,48.20
2018-07-17T20:18:20.571Z,47.80
2018-07-17T20:20:50.859Z,48.30
2018-07-17T20:23:21.488Z,46.40
2018-07-17T20:25:51.834Z,47.40
2018-07-17T20:28:22.234Z,46.90
2018-07-17T20:30:52.555Z,46.60
2018-07-17T20:33:22.722Z,46.50
2018-07-17T20:35:53.024Z,45.90
2018-07-17T20:38:23.612Z,46.30
2018-07-17T20:40:54.358Z,46.50
2018-07-17T20:44:15.880Z,46.20
2018-07-17T20:46:50.313Z,45.50
2018-07-17T20:49:23.247Z,45.10
2018-07-17T20:51:57.406Z,44.80
2018-07-17T20:54:28.702Z,45.20
2018-07-17T20:57:01.112Z,45.50
2018-07-17T20:59:33.092Z,44.80
2018-07-17T21:02:04.189Z,44.70
2018-07-17T21:04:35.312Z,44.40
2018-07-17T21:07:07.651Z,44.70
2018-07-17T21:09:38.302Z,44.40
2018-07-17T21:12:13.113Z,44.80
2018-07-17T21:14:51.098Z,44.50
2018-07-17T21:17:25.251Z,45.20
2018-07-17T21:19:55.909Z,44.40
2018-07-17T21:22:27.534Z,44.30
2018-07-17T21:24:58.113Z,44.00
2018-07-17T21:27:34.647Z,43.80
2018-07-17T21:30:08.069Z,44.50
2018-07-17T21:32:42.840Z,45.40
2018-07-17T21:35:15.420Z,44.50
2018-07-17T21:37:45.905Z,44.80
2018-07-17T21:40:16.837Z,44.20
2018-07-17T21:42:50.248Z,44.80
2018-07-17T21:46:03.793Z,45.40
2018-07-17T21:51:04.137Z,44.90
2018-07-17T21:53:34.187Z,44.60
2018-07-17T21:56:04.547Z,44.40
2018-07-17T21:58:34.734Z,45.60
2018-07-17T22:01:04.974Z,44.60
2018-07-17T22:03:35.262Z,44.80
2018-07-17T22:06:05.622Z,45.50
2018-07-17T22:08:35.752Z,46.00
2018-07-17T22:11:05.813Z,46.10
2018-07-17T22:13:35.890Z,46.10
2018-07-17T22:16:06.283Z,46.00
2018-07-17T22:18:36.349Z,47.70
2018-07-17T22:21:07.347Z,47.60
2018-07-17T22:23:38.487Z,47.70
2018-07-17T22:26:09.709Z,48.20
2018-07-17T22:28:40.239Z,48.90
2018-07-17T22:31:10.326Z,48.90
2018-07-17T22:33:40.463Z,48.90
2018-07-17T22:36:10.543Z,48.90
2018-07-17T22:38:40.773Z,49.40
2018-07-17T22:41:10.973Z,49.60
2018-07-17T22:43:41.041Z,50.10
2018-07-17T22:46:11.462Z,50.30
2018-07-17T22:48:41.562Z,50.30
2018-07-17T22:51:11.781Z,50.80
2018-07-17T22:53:41.902Z,51.20
2018-07-17T22:56:12.107Z,51.40
2018-07-17T22:58:42.380Z,51.30
2018-07-17T23:01:12.604Z,51.40
2018-07-17T23:03:42.756Z,52.20
2018-07-17T23:06:12.993Z,52.40
2018-07-17T23:08:43.114Z,51.50
2018-07-17T23:11:13.371Z,51.80
2018-07-17T23:13:43.518Z,51.10
2018-07-17T23:16:13.634Z,52.30
2018-07-17T23:18:43.813Z,53.00
2018-07-17T23:21:13.800Z,53.10
2018-07-17T23:23:44.172Z,53.40
2018-07-17T23:26:14.497Z,53.40
2018-07-17T23:28:44.597Z,53.40
2018-07-17T23:31:14.933Z,53.60
2018-07-17T23:33:44.940Z,52.80
2018-07-17T23:36:15.126Z,53.40
2018-07-17T23:38:45.492Z,52.80
2018-07-17T23:41:15.365Z,53.10
2018-07-17T23:43:45.803Z,53.30
2018-07-17T23:46:16.219Z,53.60
2018-07-17T23:48:46.209Z,53.90
2018-07-17T23:53:47.618Z,54.50
2018-07-17T23:56:17.662Z,54.60
2018-07-17T23:58:49.010Z,54.80
